sensor_id;sensor_type;location;lat;lon;timestamp;pressure;altitude;pressure_sealevel;temperature;humidity
57234;BME280;43090;52.604;13.318;2022-10-24T00:01:34;100464.06;;;13.17;100.00
57234;BME280;43090;52.604;13.318;2022-10-24T00:04:01;100488.72;;;13.75;100.00
57234;BME280;43090;52.604;13.318;2022-10-24T00:06:28;100459.53;;;13.18;100.00
57234;BME280;43090;52.604;13.318;2022-10-24T00:08:54;100498.34;;;13.46;100.00
57234;BME280;43090;52.604;13.318;2022-10-24T00:11:24;100463.84;;;13.30;100.00
57234;BME280;43090;52.604;13.318;2022-10-24T00:13:56;100482.34;;;13.45;100.00
57234;BME280;43090;52.604;13.318;2022-10-24T00:16:23;100475.84;;;13.26;100.00
57234;BME280;43090;52.604;13.318;2022-10-24T00:18:50;100428.25;;;13.17;100.00
57234;BME280;43090;52.604;13.318;2022-10-24T00:21:16;100485.88;;;13.45;100.00
57234;BME280;43090;52.604;13.318;2022-10-24T00:23:43;100454.09;;;12.87;100.00
57234;BME280;43090;52.604;13.318;2022-10-24T00:26:10;100514.22;;;13.28;100.00
57234;BME280;43090;52.604;13.318;2022-10-24T00:28:37;100511.91;;;13.03;100.00
57234;BME280;43090;52.604;13.318;2022-10-24T00:31:06;100468.28;;;12.89;100.00
57234;BME280;43090;52.604;13.318;2022-10-24T00:33:54;100483.91;;;13.26;100.00
57234;BME280;43090;52.604;13.318;2022-10-24T00:43:16;100517.81;;;13.60;100.00
57234;BME280;43090;52.604;13.318;2022-10-24T00:45:58;100482.63;;;13.42;100.00
57234;BME280;43090;52.604;13.318;2022-10-24T01:26:54;100533.97;;;13.39;100.00
57234;BME280;43090;52.604;13.318;2022-10-24T01:35:39;100510.28;;;13.32;100.00
57234;BME280;43090;52.604;13.318;2022-10-24T01:49:21;100498.88;;;13.61;100.00
57234;BME280;43090;52.604;13.318;2022-10-24T02:50:40;100436.28;;;12.65;100.00
57234;BME280;43090;52.604;13.318;2022-10-24T02:53:13;100419.53;;;12.52;100.00
57234;BME280;43090;52.604;13.318;2022-10-24T02:55:41;100417.28;;;12.57;100.00
57234;BME280;43090;52.604;13.318;2022-10-24T02:58:10;100431.31;;;12.60;100.00
57234;BME280;43090;52.604;13.318;2022-10-24T03:00:37;100415.00;;;12.52;100.00
57234;BME280;43090;52.604;13.318;2022-10-24T03:03:03;100456.94;;;12.86;100.00
57234;BME280;43090;52.604;13.318;2022-10-24T03:05:30;100386.38;;;12.09;100.00
57234;BME280;43090;52.604;13.318;2022-10-24T03:07:57;100428.25;;;12.32;100.00
57234;BME280;43090;52.604;13.318;2022-10-24T03:10:24;100427.66;;;12.29;100.00
57234;BME280;43090;52.604;13.318;2022-10-24T03:12:50;100431.97;;;12.20;100.00
57234;BME280;43090;52.604;13.318;2022-10-24T03:15:17;100458.22;;;12.49;100.00
57234;BME280;43090;52.604;13.318;2022-10-24T03:20:54;100440.72;;;12.22;100.00
57234;BME280;43090;52.604;13.318;2022-10-24T03:23:26;100399.25;;;11.71;100.00
57234;BME280;43090;52.604;13.318;2022-10-24T03:26:26;100394.94;;;12.03;100.00
57234;BME280;43090;52.604;13.318;2022-10-24T03:32:50;100425.81;;;11.97;100.00
57234;BME280;43090;52.604;13.318;2022-10-24T03:35:18;100416.41;;;12.03;100.00
57234;BME280;43090;52.604;13.318;2022-10-24T03:37:47;100419.34;;;11.99;100.00
57234;BME280;43090;52.604;13.318;2022-10-24T03:40:14;100439.63;;;12.25;100.00
57234;BME280;43090;52.604;13.318;2022-10-24T03:43:00;100415.09;;;11.86;100.00
57234;BME280;43090;52.604;13.318;2022-10-24T03:51:20;100423.72;;;12.00;100.00
57234;BME280;43090;52.604;13.318;2022-10-24T03:53:59;100425.94;;;11.95;100.00
57234;BME280;43090;52.604;13.318;2022-10-24T03:56:26;100405.69;;;11.91;100.00
57234;BME280;43090;52.604;13.318;2022-10-24T04:15:08;100424.47;;;11.80;100.00
57234;BME280;43090;52.604;13.318;2022-10-24T04:17:36;100395.47;;;11.74;100.00
57234;BME280;43090;52.604;13.318;2022-10-24T04:20:02;100437.22;;;12.10;100.00
57234;BME280;43090;52.604;13.318;2022-10-24T04:22:29;100425.81;;;11.97;100.00
57234;BME280;43090;52.604;13.318;2022-10-24T04:24:56;100394.03;;;11.70;100.00
57234;BME280;43090;52.604;13.318;2022-10-24T04:27:23;100421.50;;;11.94;100.00
57234;BME280;43090;52.604;13.318;2022-10-24T04:29:49;100389.22;;;11.84;100.00
57234;BME280;43090;52.604;13.318;2022-10-24T04:33:02;100400.72;;;11.64;100.00
57234;BME280;43090;52.604;13.318;2022-10-24T04:38:49;100423.28;;;11.73;100.00
57234;BME280;43090;52.604;13.318;2022-10-24T04:41:15;100448.63;;;12.03;100.00
57234;BME280;43090;52.604;13.318;2022-10-24T04:43:42;100406.00;;;11.54;100.00
57234;BME280;43090;52.604;13.318;2022-10-24T04:46:08;100427.63;;;11.85;100.00
57234;BME280;43090;52.604;13.318;2022-10-24T04:48:35;100412.81;;;11.70;100.00
57234;BME280;43090;52.604;13.318;2022-10-24T04:51:02;100411.09;;;11.69;100.00
57234;BME280;43090;52.604;13.318;2022-10-24T04:53:29;100429.88;;;11.57;100.00
57234;BME280;43090;52.604;13.318;2022-10-24T04:55:55;100441.44;;;11.80;100.00
57234;BME280;43090;52.604;13.318;2022-10-24T04:58:22;100436.41;;;11.76;100.00
57234;BME280;43090;52.604;13.318;2022-10-24T05:00:49;100410.84;;;11.72;100.00
57234;BME280;43090;52.604;13.318;2022-10-24T05:03:17;100432.06;;;11.75;100.00
57234;BME280;43090;52.604;13.318;2022-10-24T05:05:45;100443.72;;;11.85;100.00
57234;BME280;43090;52.604;13.318;2022-10-24T05:08:12;100417.44;;;11.56;100.00
57234;BME280;43090;52.604;13.318;2022-10-24T05:10:42;100472.78;;;12.03;100.00
57234;BME280;43090;52.604;13.318;2022-10-24T05:17:36;100469.09;;;11.92;100.00
57234;BME280;43090;52.604;13.318;2022-10-24T05:20:03;100437.91;;;11.69;100.00
57234;BME280;43090;52.604;13.318;2022-10-24T05:22:33;100435.72;;;11.74;100.00
57234;BME280;43090;52.604;13.318;2022-10-24T05:25:00;100409.63;;;11.53;100.00
57234;BME280;43090;52.604;13.318;2022-10-24T05:27:27;100404.50;;;11.61;100.00
57234;BME280;43090;52.604;13.318;2022-10-24T05:56:19;100418.38;;;12.00;100.00
57234;BME280;43090;52.604;13.318;2022-10-24T05:58:46;100454.94;;;12.45;100.00
57234;BME280;43090;52.604;13.318;2022-10-24T06:01:13;100435.03;;;12.15;100.00
57234;BME280;43090;52.604;13.318;2022-10-24T06:03:40;100395.66;;;12.05;100.00
57234;BME280;43090;52.604;13.318;2022-10-24T06:06:08;100395.66;;;12.05;100.00
57234;BME280;43090;52.604;13.318;2022-10-24T06:08:36;100410.91;;;12.04;100.00
57234;BME280;43090;52.604;13.318;2022-10-24T06:11:17;100420.69;;;12.26;100.00
57234;BME280;43090;52.604;13.318;2022-10-24T06:13:44;100430.19;;;12.09;100.00
57234;BME280;43090;52.604;13.318;2022-10-24T06:16:11;100377.06;;;11.80;100.00
57234;BME280;43090;52.604;13.318;2022-10-24T06:18:40;100435.25;;;12.24;100.00
57234;BME280;43090;52.604;13.318;2022-10-24T07:49:27;100442.91;;;13.55;100.00
57234;BME280;43090;52.604;13.318;2022-10-24T07:54:42;100494.91;;;14.16;100.00
57234;BME280;43090;52.604;13.318;2022-10-24T08:00:06;100436.97;;;14.12;100.00
57234;BME280;43090;52.604;13.318;2022-10-24T08:20:56;100489.19;;;14.79;100.00
57234;BME280;43090;52.604;13.318;2022-10-24T08:23:24;100447.91;;;14.59;100.00
57234;BME280;43090;52.604;13.318;2022-10-24T08:31:17;100484.13;;;15.24;100.00
57234;BME280;43090;52.604;13.318;2022-10-24T08:33:45;100483.44;;;15.12;100.00
57234;BME280;43090;52.604;13.318;2022-10-24T08:38:47;100455.91;;;15.18;100.00
57234;BME280;43090;52.604;13.318;2022-10-24T08:52:37;100447.09;;;15.16;100.00
57234;BME280;43090;52.604;13.318;2022-10-24T08:55:15;100415.34;;;15.10;100.00
57234;BME280;43090;52.604;13.318;2022-10-24T09:01:53;100441.69;;;15.63;100.00
57234;BME280;43090;52.604;13.318;2022-10-24T09:05:16;100437.66;;;15.40;100.00
57234;BME280;43090;52.604;13.318;2022-10-24T09:18:32;100422.94;;;15.62;99.75
57234;BME280;43090;52.604;13.318;2022-10-24T09:21:04;100439.56;;;15.95;100.00
57234;BME280;43090;52.604;13.318;2022-10-24T09:23:33;100463.03;;;15.94;100.00
57234;BME280;43090;52.604;13.318;2022-10-24T09:26:13;100449.53;;;16.12;98.57
57234;BME280;43090;52.604;13.318;2022-10-24T09:29:02;100440.78;;;16.01;97.57
57234;BME280;43090;52.604;13.318;2022-10-24T09:32:13;100434.63;;;15.90;98.71
57234;BME280;43090;52.604;13.318;2022-10-24T09:44:52;100477.00;;;16.26;97.30
57234;BME280;43090;52.604;13.318;2022-10-24T09:47:27;100451.78;;;16.17;95.45
57234;BME280;43090;52.604;13.318;2022-10-24T09:49:54;100439.50;;;16.05;94.10
57234;BME280;43090;52.604;13.318;2022-10-24T09:52:24;100430.38;;;16.06;95.65
57234;BME280;43090;52.604;13.318;2022-10-24T09:55:18;100451.63;;;16.55;96.42
57234;BME280;43090;52.604;13.318;2022-10-24T09:57:52;100432.25;;;16.41;96.52
57234;BME280;43090;52.604;13.318;2022-10-24T10:08:30;100435.56;;;16.53;100.00
57234;BME280;43090;52.604;13.318;2022-10-24T10:11:06;100440.69;;;16.38;95.99
57234;BME280;43090;52.604;13.318;2022-10-24T10:13:45;100420.22;;;16.36;94.74
57234;BME280;43090;52.604;13.318;2022-10-24T10:16:25;100455.72;;;16.77;93.79
57234;BME280;43090;52.604;13.318;2022-10-24T10:19:06;100435.91;;;16.50;94.44
57234;BME280;43090;52.604;13.318;2022-10-24T10:22:24;100454.88;;;16.58;94.83
57234;BME280;43090;52.604;13.318;2022-10-24T10:24:53;100428.28;;;16.72;95.47
57234;BME280;43090;52.604;13.318;2022-10-24T10:27:39;100451.69;;;16.81;92.01
57234;BME280;43090;52.604;13.318;2022-10-24T10:39:19;100450.06;;;16.88;90.78
57234;BME280;43090;52.604;13.318;2022-10-24T10:42:06;100423.59;;;16.56;91.04
57234;BME280;43090;52.604;13.318;2022-10-24T10:45:13;100452.06;;;16.86;92.14
57234;BME280;43090;52.604;13.318;2022-10-24T10:48:02;100448.72;;;17.10;90.21
57234;BME280;43090;52.604;13.318;2022-10-24T10:50:40;100427.91;;;16.85;90.40
57234;BME280;43090;52.604;13.318;2022-10-24T10:56:10;100402.97;;;16.73;89.56
57234;BME280;43090;52.604;13.318;2022-10-24T11:04:51;100440.94;;;16.89;90.03
57234;BME280;43090;52.604;13.318;2022-10-24T11:07:41;100437.59;;;17.13;89.47
57234;BME280;43090;52.604;13.318;2022-10-24T11:10:24;100443.38;;;16.92;89.12
57234;BME280;43090;52.604;13.318;2022-10-24T11:12:53;100419.25;;;16.81;86.88
57234;BME280;43090;52.604;13.318;2022-10-24T11:15:34;100414.47;;;16.93;87.69
57234;BME280;43090;52.604;13.318;2022-10-24T11:25:43;100426.66;;;16.97;86.86
57234;BME280;43090;52.604;13.318;2022-10-24T11:28:25;100419.63;;;17.04;88.04
57234;BME280;43090;52.604;13.318;2022-10-24T11:31:06;100429.69;;;16.76;88.93
57234;BME280;43090;52.604;13.318;2022-10-24T11:33:54;100444.78;;;16.87;86.84
57234;BME280;43090;52.604;13.318;2022-10-24T11:36:29;100434.09;;;16.95;88.37
57234;BME280;43090;52.604;13.318;2022-10-24T11:39:26;100423.78;;;16.98;87.49
57234;BME280;43090;52.604;13.318;2022-10-24T11:42:20;100439.72;;;17.02;86.18
57234;BME280;43090;52.604;13.318;2022-10-24T11:56:24;100403.03;;;16.81;90.26
57234;BME280;43090;52.604;13.318;2022-10-24T11:59:19;100395.69;;;16.73;88.33
57234;BME280;43090;52.604;13.318;2022-10-24T12:11:41;100375.81;;;16.82;86.64
57234;BME280;43090;52.604;13.318;2022-10-24T12:17:39;100398.81;;;17.05;86.19
57234;BME280;43090;52.604;13.318;2022-10-24T12:20:14;100364.09;;;16.92;84.75
57234;BME280;43090;52.604;13.318;2022-10-24T12:22:50;100358.19;;;16.70;83.74
57234;BME280;43090;52.604;13.318;2022-10-24T12:25:31;100357.00;;;16.91;84.85
57234;BME280;43090;52.604;13.318;2022-10-24T12:28:04;100371.00;;;17.21;85.45
57234;BME280;43090;52.604;13.318;2022-10-24T12:30:42;100389.34;;;17.35;85.30
57234;BME280;43090;52.604;13.318;2022-10-24T12:39:47;100329.56;;;16.86;84.89
57234;BME280;43090;52.604;13.318;2022-10-24T12:45:22;100326.53;;;17.15;81.88
57234;BME280;43090;52.604;13.318;2022-10-24T13:00:00;100377.28;;;17.72;81.62
57234;BME280;43090;52.604;13.318;2022-10-24T13:02:58;100380.28;;;17.95;82.85
57234;BME280;43090;52.604;13.318;2022-10-24T13:33:45;100374.03;;;18.36;75.71
57234;BME280;43090;52.604;13.318;2022-10-24T13:36:19;100356.59;;;18.22;76.51
57234;BME280;43090;52.604;13.318;2022-10-24T13:39:10;100353.38;;;18.27;74.56
57234;BME280;43090;52.604;13.318;2022-10-24T13:41:41;100377.25;;;18.40;74.54
57234;BME280;43090;52.604;13.318;2022-10-24T13:44:42;100393.88;;;18.70;73.88
57234;BME280;43090;52.604;13.318;2022-10-24T13:51:23;100371.97;;;18.05;75.79
57234;BME280;43090;52.604;13.318;2022-10-24T13:54:23;100347.06;;;17.93;74.06
57234;BME280;43090;52.604;13.318;2022-10-24T13:57:32;100378.00;;;17.91;75.27
57234;BME280;43090;52.604;13.318;2022-10-24T14:00:15;100392.81;;;18.05;74.86
57234;BME280;43090;52.604;13.318;2022-10-24T14:02:44;100369.03;;;17.82;74.82
57234;BME280;43090;52.604;13.318;2022-10-24T14:05:31;100406.97;;;17.90;76.32
57234;BME280;43090;52.604;13.318;2022-10-24T14:08:00;100370.63;;;17.50;76.49
57234;BME280;43090;52.604;13.318;2022-10-24T14:10:53;100410.38;;;17.92;75.24
57234;BME280;43090;52.604;13.318;2022-10-24T14:17:33;100396.25;;;17.80;74.82
57234;BME280;43090;52.604;13.318;2022-10-24T14:23:36;100392.81;;;17.62;76.36
57234;BME280;43090;52.604;13.318;2022-10-24T14:26:18;100364.34;;;17.41;76.02
57234;BME280;43090;52.604;13.318;2022-10-24T14:28:57;100369.09;;;17.47;76.81
57234;BME280;43090;52.604;13.318;2022-10-24T14:31:33;100402.22;;;17.84;74.58
57234;BME280;43090;52.604;13.318;2022-10-24T14:34:04;100381.81;;;17.55;74.71
57234;BME280;43090;52.604;13.318;2022-10-24T14:36:41;100381.56;;;17.83;74.78
57234;BME280;43090;52.604;13.318;2022-10-24T14:39:11;100414.38;;;17.80;74.90
57234;BME280;43090;52.604;13.318;2022-10-24T14:42:01;100417.78;;;17.82;75.01
57234;BME280;43090;52.604;13.318;2022-10-24T14:44:34;100384.03;;;17.60;74.44
57234;BME280;43090;52.604;13.318;2022-10-24T14:47:13;100410.97;;;17.78;75.40
57234;BME280;43090;52.604;13.318;2022-10-24T14:50:04;100388.09;;;17.64;75.33
57234;BME280;43090;52.604;13.318;2022-10-24T14:53:00;100405.53;;;17.61;75.67
57234;BME280;43090;52.604;13.318;2022-10-24T14:55:30;100377.53;;;17.44;74.93
57234;BME280;43090;52.604;13.318;2022-10-24T14:58:00;100397.03;;;17.56;76.10
57234;BME280;43090;52.604;13.318;2022-10-24T15:00:35;100393.16;;;17.59;75.50
57234;BME280;43090;52.604;13.318;2022-10-24T15:03:03;100410.59;;;17.64;75.73
57234;BME280;43090;52.604;13.318;2022-10-24T15:05:32;100372.66;;;17.48;75.79
57234;BME280;43090;52.604;13.318;2022-10-24T15:18:30;100411.59;;;17.21;80.04
57234;BME280;43090;52.604;13.318;2022-10-24T15:21:04;100409.84;;;17.11;79.88
57234;BME280;43090;52.604;13.318;2022-10-24T15:30:40;100423.09;;;16.96;80.81
57234;BME280;43090;52.604;13.318;2022-10-24T15:33:29;100367.13;;;16.71;80.74
57234;BME280;43090;52.604;13.318;2022-10-24T15:35:57;100372.38;;;16.46;81.92
57234;BME280;43090;52.604;13.318;2022-10-24T15:38:24;100417.88;;;16.77;82.95
57234;BME280;43090;52.604;13.318;2022-10-24T15:40:50;100405.06;;;16.61;82.94
57234;BME280;43090;52.604;13.318;2022-10-24T15:43:21;100398.28;;;16.57;82.42
57234;BME280;43090;52.604;13.318;2022-10-24T15:45:50;100390.19;;;16.57;82.88
57234;BME280;43090;52.604;13.318;2022-10-24T15:48:17;100399.94;;;16.76;82.25
57234;BME280;43090;52.604;13.318;2022-10-24T15:50:45;100392.00;;;16.56;83.04
57234;BME280;43090;52.604;13.318;2022-10-24T15:53:19;100396.19;;;16.69;82.42
57234;BME280;43090;52.604;13.318;2022-10-24T15:55:47;100394.47;;;16.68;82.26
57234;BME280;43090;52.604;13.318;2022-10-24T15:58:16;100412.47;;;16.77;83.21
57234;BME280;43090;52.604;13.318;2022-10-24T16:00:46;100398.97;;;16.59;83.60
57234;BME280;43090;52.604;13.318;2022-10-24T16:03:20;100408.16;;;16.48;83.82
57234;BME280;43090;52.604;13.318;2022-10-24T16:05:51;100434.03;;;16.69;83.63
57234;BME280;43090;52.604;13.318;2022-10-24T16:08:19;100400.81;;;16.58;83.93
57234;BME280;43090;52.604;13.318;2022-10-24T16:10:50;100405.19;;;16.51;83.93
57234;BME280;43090;52.604;13.318;2022-10-24T16:13:18;100416.50;;;16.55;83.70
57234;BME280;43090;52.604;13.318;2022-10-24T16:15:46;100417.28;;;16.47;84.71
57234;BME280;43090;52.604;13.318;2022-10-24T16:18:13;100411.56;;;16.50;84.42
57234;BME280;43090;52.604;13.318;2022-10-24T16:20:40;100391.78;;;16.49;83.39
57234;BME280;43090;52.604;13.318;2022-10-24T16:23:07;100404.72;;;16.20;85.03
57234;BME280;43090;52.604;13.318;2022-10-24T16:25:37;100432.72;;;16.55;84.13
57234;BME280;43090;52.604;13.318;2022-10-24T16:28:04;100439.59;;;16.49;85.31
57234;BME280;43090;52.604;13.318;2022-10-24T16:30:34;100450.34;;;16.41;86.11
57234;BME280;43090;52.604;13.318;2022-10-24T16:33:03;100429.50;;;16.33;86.00
57234;BME280;43090;52.604;13.318;2022-10-24T16:35:32;100457.56;;;16.40;85.01
57234;BME280;43090;52.604;13.318;2022-10-24T16:38:01;100452.56;;;16.27;85.29
57234;BME280;43090;52.604;13.318;2022-10-24T16:40:35;100418.59;;;16.07;85.12
57234;BME280;43090;52.604;13.318;2022-10-24T16:43:19;100440.38;;;16.41;84.29
57234;BME280;43090;52.604;13.318;2022-10-24T16:45:58;100425.00;;;16.24;84.21
57234;BME280;43090;52.604;13.318;2022-10-24T16:48:28;100423.16;;;16.06;84.17
57234;BME280;43090;52.604;13.318;2022-10-24T16:50:55;100471.09;;;16.40;84.57
57234;BME280;43090;52.604;13.318;2022-10-24T16:53:25;100425.56;;;15.81;85.13
57234;BME280;43090;52.604;13.318;2022-10-24T16:55:54;100448.38;;;16.15;84.61
57234;BME280;43090;52.604;13.318;2022-10-24T16:58:21;100465.59;;;16.32;84.35
57234;BME280;43090;52.604;13.318;2022-10-24T17:00:48;100484.06;;;16.37;84.45
57234;BME280;43090;52.604;13.318;2022-10-24T17:03:15;100464.38;;;16.26;83.56
57234;BME280;43090;52.604;13.318;2022-10-24T17:05:41;100470.63;;;16.27;83.62
57234;BME280;43090;52.604;13.318;2022-10-24T17:08:11;100451.31;;;16.04;83.78
57234;BME280;43090;52.604;13.318;2022-10-24T17:10:40;100479.41;;;16.11;84.06
57234;BME280;43090;52.604;13.318;2022-10-24T17:13:07;100455.50;;;16.16;83.63
57234;BME280;43090;52.604;13.318;2022-10-24T17:15:33;100463.28;;;16.19;83.03
57234;BME280;43090;52.604;13.318;2022-10-24T17:18:00;100452.72;;;16.08;82.88
57234;BME280;43090;52.604;13.318;2022-10-24T17:20:27;100489.91;;;16.32;82.56
57234;BME280;43090;52.604;13.318;2022-10-24T17:22:59;100442.06;;;15.78;84.45
57234;BME280;43090;52.604;13.318;2022-10-24T17:25:31;100479.72;;;16.08;84.02
57234;BME280;43090;52.604;13.318;2022-10-24T17:27:58;100449.59;;;16.03;84.10
57234;BME280;43090;52.604;13.318;2022-10-24T17:30:41;100430.38;;;15.88;83.98
57234;BME280;43090;52.604;13.318;2022-10-24T17:33:09;100444.53;;;15.99;83.39
57234;BME280;43090;52.604;13.318;2022-10-24T17:35:41;100458.53;;;15.85;84.80
57234;BME280;43090;52.604;13.318;2022-10-24T17:38:30;100442.72;;;15.62;85.78
57234;BME280;43090;52.604;13.318;2022-10-24T17:41:08;100486.09;;;16.07;84.39
57234;BME280;43090;52.604;13.318;2022-10-24T17:43:37;100475.88;;;15.73;85.99
57234;BME280;43090;52.604;13.318;2022-10-24T17:46:04;100456.97;;;15.73;85.53
57234;BME280;43090;52.604;13.318;2022-10-24T17:48:30;100491.34;;;15.80;86.08
57234;BME280;43090;52.604;13.318;2022-10-24T17:50:57;100454.97;;;15.47;86.02
57234;BME280;43090;52.604;13.318;2022-10-24T17:53:24;100477.50;;;15.56;86.67
57234;BME280;43090;52.604;13.318;2022-10-24T17:55:53;100445.06;;;15.38;86.31
57234;BME280;43090;52.604;13.318;2022-10-24T17:58:24;100489.09;;;15.76;85.71
57234;BME280;43090;52.604;13.318;2022-10-24T18:00:54;100457.78;;;15.55;85.62
57234;BME280;43090;52.604;13.318;2022-10-24T18:06:58;100478.06;;;15.59;84.90
57234;BME280;43090;52.604;13.318;2022-10-24T18:09:33;100468.22;;;15.68;84.66
57234;BME280;43090;52.604;13.318;2022-10-24T18:12:40;100467.16;;;15.51;84.72
57234;BME280;43090;52.604;13.318;2022-10-24T18:15:37;100461.00;;;15.31;86.49
57234;BME280;43090;52.604;13.318;2022-10-24T18:18:50;100476.03;;;15.33;86.87
57234;BME280;43090;52.604;13.318;2022-10-24T18:21:34;100463.03;;;15.19;86.63
57234;BME280;43090;52.604;13.318;2022-10-24T18:24:07;100465.53;;;15.30;85.91
57234;BME280;43090;52.604;13.318;2022-10-24T18:26:57;100468.09;;;15.22;87.03
57234;BME280;43090;52.604;13.318;2022-10-24T18:30:28;100526.22;;;15.54;86.32
57234;BME280;43090;52.604;13.318;2022-10-24T18:53:40;100524.00;;;15.40;87.37
57234;BME280;43090;52.604;13.318;2022-10-24T21:24:37;100580.88;;;14.48;93.15
57234;BME280;43090;52.604;13.318;2022-10-24T21:27:14;100587.06;;;14.29;93.86
57234;BME280;43090;52.604;13.318;2022-10-24T21:29:41;100591.22;;;14.43;92.83
57234;BME280;43090;52.604;13.318;2022-10-24T21:32:12;100542.72;;;13.93;93.96
57234;BME280;43090;52.604;13.318;2022-10-24T21:34:41;100571.06;;;14.28;94.11
57234;BME280;43090;52.604;13.318;2022-10-24T21:37:09;100595.22;;;14.59;92.59
57234;BME280;43090;52.604;13.318;2022-10-24T21:39:44;100536.94;;;14.38;92.01
57234;BME280;43090;52.604;13.318;2022-10-24T21:42:12;100583.38;;;14.71;91.42
57234;BME280;43090;52.604;13.318;2022-10-24T21:44:46;100585.25;;;14.40;91.77
57234;BME280;43090;52.604;13.318;2022-10-24T21:50:14;100586.53;;;14.36;91.59
57234;BME280;43090;52.604;13.318;2022-10-24T21:52:44;100556.41;;;14.11;92.97
57234;BME280;43090;52.604;13.318;2022-10-24T21:55:11;100564.63;;;14.09;91.95
57234;BME280;43090;52.604;13.318;2022-10-24T21:57:40;100600.38;;;14.21;92.39
57234;BME280;43090;52.604;13.318;2022-10-24T22:00:11;100608.31;;;14.32;92.45
57234;BME280;43090;52.604;13.318;2022-10-24T22:02:41;100599.03;;;14.06;92.98
57234;BME280;43090;52.604;13.318;2022-10-24T22:05:25;100563.25;;;13.84;93.12
57234;BME280;43090;52.604;13.318;2022-10-24T22:07:59;100608.97;;;14.15;92.39
57234;BME280;43090;52.604;13.318;2022-10-24T22:10:37;100562.34;;;13.74;93.93
57234;BME280;43090;52.604;13.318;2022-10-24T22:13:18;100569.97;;;13.69;94.78
57234;BME280;43090;52.604;13.318;2022-10-24T22:15:58;100597.94;;;13.87;95.08
57234;BME280;43090;52.604;13.318;2022-10-24T22:18:34;100582.78;;;13.86;95.01
57234;BME280;43090;52.604;13.318;2022-10-24T22:21:08;100613.59;;;14.03;94.63
57234;BME280;43090;52.604;13.318;2022-10-24T22:23:56;100599.25;;;13.93;96.51
57234;BME280;43090;52.604;13.318;2022-10-24T22:26:35;100572.56;;;13.80;96.21
57234;BME280;43090;52.604;13.318;2022-10-24T22:29:36;100596.78;;;14.11;95.27
57234;BME280;43090;52.604;13.318;2022-10-24T22:32:14;100581.34;;;13.82;95.52
57234;BME280;43090;52.604;13.318;2022-10-24T22:35:04;100618.78;;;14.16;95.58
57234;BME280;43090;52.604;13.318;2022-10-24T22:37:34;100608.66;;;13.98;95.48
57234;BME280;43090;52.604;13.318;2022-10-24T22:40:17;100572.03;;;13.86;95.50
57234;BME280;43090;52.604;13.318;2022-10-24T22:42:51;100588.78;;;13.99;94.39
57234;BME280;43090;52.604;13.318;2022-10-24T22:45:21;100620.09;;;14.00;94.71
57234;BME280;43090;52.604;13.318;2022-10-24T22:48:18;100593.91;;;13.72;95.44
57234;BME280;43090;52.604;13.318;2022-10-24T22:51:00;100607.91;;;13.65;96.33
57234;BME280;43090;52.604;13.318;2022-10-24T22:53:34;100615.41;;;13.93;95.27
57234;BME280;43090;52.604;13.318;2022-10-24T22:56:25;100636.41;;;13.99;94.64
57234;BME280;43090;52.604;13.318;2022-10-24T22:58:59;100612.41;;;13.65;95.65
57234;BME280;43090;52.604;13.318;2022-10-24T23:04:19;100608.03;;;13.43;96.14
57234;BME280;43090;52.604;13.318;2022-10-24T23:07:46;100608.28;;;13.61;95.65
57234;BME280;43090;52.604;13.318;2022-10-24T23:09:53;100622.00;;;13.58;95.44
57234;BME280;43090;52.604;13.318;2022-10-24T23:12:21;100628.56;;;13.65;96.03
57234;BME280;43090;52.604;13.318;2022-10-24T23:14:53;100611.84;;;13.40;95.81
57234;BME280;43090;52.604;13.318;2022-10-24T23:17:28;100608.97;;;13.21;97.21
57234;BME280;43090;52.604;13.318;2022-10-24T23:19:56;100631.00;;;13.47;96.71
57234;BME280;43090;52.604;13.318;2022-10-24T23:22:23;100649.69;;;13.48;96.37
57234;BME280;43090;52.604;13.318;2022-10-24T23:24:53;100658.72;;;13.15;98.43
57234;BME280;43090;52.604;13.318;2022-10-24T23:27:32;100629.47;;;13.00;98.96
57234;BME280;43090;52.604;13.318;2022-10-24T23:30:15;100641.56;;;13.27;97.81
57234;BME280;43090;52.604;13.318;2022-10-24T23:32:42;100655.81;;;13.07;97.71
57234;BME280;43090;52.604;13.318;2022-10-24T23:35:14;100630.25;;;12.69;99.37
57234;BME280;43090;52.604;13.318;2022-10-24T23:37:44;100612.06;;;12.83;99.23
57234;BME280;43090;52.604;13.318;2022-10-24T23:42:47;100633.16;;;12.88;97.93
57234;BME280;43090;52.604;13.318;2022-10-24T23:45:21;100623.97;;;12.36;100.00
57234;BME280;43090;52.604;13.318;2022-10-24T23:50:42;100667.84;;;12.91;98.57
57234;BME280;43090;52.604;13.318;2022-10-24T23:53:45;100649.34;;;12.31;100.00
57234;BME280;43090;52.604;13.318;2022-10-24T23:56:28;100648.63;;;12.63;100.00
57234;BME280;43090;52.604;13.318;2022-10-24T23:59:00;100633.25;;;12.54;99.54
